This is the latest recevied weather packets stored in our database for station/object DL6MM-4. If no packets are shown the sender has not sent any weather packets the latest 10 day(s).
| Time | Temp. | Humidity | Pressure | Rain* | Wind** | Luminosity | Snow |
|---|---|---|---|---|---|---|---|
| 1777346354 | 5.56° C | 82% | 1020.9 hPa | 0 mm | - | - | - |
| 1777345753 | 5.56° C | 82% | 1020.7 hPa | 0 mm | - | - | - |
| 1777345154 | 5° C | 83% | 1020.9 hPa | 0 mm | - | - | - |
| 1777344554 | 5° C | 83% | 1020.9 hPa | 0 mm | - | - | - |
| 1777343953 | 5° C | 82% | 1020.9 hPa | 0 mm | - | - | - |
| 1777343354 | 5° C | 82% | 1020.9 hPa | 0 mm | - | - | - |
| 1777342753 | 5° C | 82% | 1020.7 hPa | 0 mm | - | - | - |
| 1777342154 | 5° C | 81% | 1020.7 hPa | 0 mm | - | - | - |
| 1777341553 | 5° C | 82% | 1020.7 hPa | 0 mm | - | - | - |
| 1777340954 | 5° C | 82% | 1020.7 hPa | 0 mm | - | - | - |
| 1777340353 | 5° C | 81% | 1020.7 hPa | 0 mm | - | - | - |
| 1777339753 | 5° C | 81% | 1020.7 hPa | 0 mm | - | - | - |
| 1777339153 | 5° C | 80% | 1020.6 hPa | 0 mm | - | - | - |
| 1777338554 | 5° C | 81% | 1020.6 hPa | 0 mm | - | - | - |
| 1777337954 | 4.44° C | 83% | 1020.5 hPa | 0 mm | - | - | - |
| 1777337354 | 4.44° C | 83% | 1020.6 hPa | 0 mm | - | - | - |
| 1777336754 | 4.44° C | 83% | 1020.6 hPa | 0 mm | - | - | - |
| 1777336154 | 4.44° C | 82% | 1020.6 hPa | 0 mm | - | - | - |
| 1777335553 | 4.44° C | 80% | 1020.5 hPa | 0 mm | - | - | - |
| 1777334953 | 5° C | 78% | 1020.5 hPa | 0 mm | - | - | - |
| 1777334353 | 5.56° C | 76% | 1020.4 hPa | 0 mm | - | - | - |
| 1777333754 | 6.11° C | 74% | 1020.2 hPa | 0 mm | - | - | - |
| 1777333153 | 6.67° C | 73% | 1020.2 hPa | 0 mm | - | - | - |
| 1777332553 | 7.22° C | 70% | 1020.2 hPa | 0 mm | - | - | - |
| 1777331953 | 8.33° C | 66% | 1020.2 hPa | 0 mm | - | - | - |
* Rain latest hour (hover to see other rain measurements)
** Current wind speed in m/s (hover to see current wind gust speed)